Time;durP1;ratioP1;P1;durP2;ratioP2;P2;SDS_P1;SDS_P2;PMS_P1;PMS_P2;Temp;Humidity;BMP_temperature;BMP_pressure;BME280_temperature;BME280_humidity;BME280_pressure;Samples;Min_cycle;Max_cycle;Signal;HPM_P1;HPM_P2
2023/04/25 00:01:17;;;;;;;13.95;4.47;;;;;;;6.11;100.00;99969.25;4901373;29;20044;-82
2023/04/25 00:03:43;;;;;;;9.95;4.22;;;;;;;6.10;100.00;99964.91;4900820;29;20399;-81
2023/04/25 00:06:10;;;;;;;12.55;4.00;;;;;;;6.12;100.00;99963.19;4900614;29;20502;-80
2023/04/25 00:08:36;;;;;;;8.82;4.35;;;;;;;6.16;100.00;99958.84;4901038;29;20047;-81
2023/04/25 00:11:03;;;;;;;17.40;4.50;;;;;;;6.21;100.00;99957.09;4916075;29;20047;-81
2023/04/25 00:13:29;;;;;;;9.50;3.92;;;;;;;6.27;100.00;99963.16;4916176;29;20066;-81
2023/04/25 00:15:56;;;;;;;7.28;3.55;;;;;;;6.32;100.00;99952.72;4900749;29;20037;-80
2023/04/25 00:18:23;;;;;;;11.43;4.28;;;;;;;6.35;100.00;99959.66;4916217;29;20044;-81
2023/04/25 00:20:49;;;;;;;12.02;4.50;;;;;;;6.29;100.00;99964.00;4915588;29;20044;-81
2023/04/25 00:23:19;;;;;;;8.98;3.90;;;;;;;6.28;100.00;99961.41;4931231;29;20032;-81
2023/04/25 00:25:47;;;;;;;9.65;3.80;;;;;;;6.28;100.00;99964.00;4899966;29;20040;-82
2023/04/25 00:28:13;;;;;;;6.90;4.35;;;;;;;6.38;100.00;99965.72;4917994;29;20112;-81
2023/04/25 00:30:41;;;;;;;8.13;4.05;;;;;;;6.39;100.00;99964.00;4899618;29;20051;-81
2023/04/25 00:33:08;;;;;;;10.85;4.30;;;;;;;6.39;100.00;99961.41;4917616;29;20333;-80
2023/04/25 00:35:35;;;;;;;8.85;3.42;;;;;;;6.39;100.00;99964.84;4915232;29;20040;-80
2023/04/25 00:38:02;;;;;;;9.63;3.78;;;;;;;6.41;100.00;99959.63;4916097;29;20067;-81
2023/04/25 00:40:29;;;;;;;10.00;3.83;;;;;;;6.41;100.00;99963.13;4931349;29;20040;-82
2023/04/25 00:42:56;;;;;;;5.50;3.20;;;;;;;6.39;100.00;99967.44;4915290;29;20047;-80
2023/04/25 00:45:22;;;;;;;13.10;4.05;;;;;;;6.38;100.00;99960.50;4915188;29;20036;-80
2023/04/25 00:47:49;;;;;;;8.45;3.92;;;;;;;6.39;100.00;99966.59;4931443;29;20040;-80
2023/04/25 00:50:15;;;;;;;6.43;4.55;;;;;;;6.41;100.00;99962.25;4913731;29;20112;-80
2023/04/25 00:52:45;;;;;;;12.15;4.50;;;;;;;6.46;100.00;99955.28;4915146;29;20067;-80
2023/04/25 00:55:13;;;;;;;5.75;3.22;;;;;;;6.43;100.00;99961.38;4915234;29;20056;-80
2023/04/25 00:57:40;;;;;;;9.60;3.65;;;;;;;6.42;100.00;99962.22;4930785;29;20376;-81
2023/04/25 01:00:09;;;;;;;5.47;3.28;;;;;;;6.42;100.00;99963.97;4915003;29;20036;-80
2023/04/25 01:02:37;;;;;;;6.93;4.20;;;;;;;6.42;100.00;99953.56;4914948;29;20104;-80
2023/04/25 01:05:04;;;;;;;9.02;4.10;;;;;;;6.48;100.00;99957.88;4914988;29;20091;-80
2023/04/25 01:07:31;;;;;;;11.32;4.22;;;;;;;6.43;100.00;99953.56;4914887;29;20076;-81
2023/04/25 01:09:57;;;;;;;11.77;4.05;;;;;;;6.37;100.00;99957.91;4915038;29;20051;-81
2023/04/25 01:12:24;;;;;;;8.05;3.80;;;;;;;6.29;100.00;99953.59;4899130;29;20041;-81
2023/04/25 01:14:51;;;;;;;8.23;4.03;;;;;;;6.30;100.00;99959.69;4914864;29;20032;-80
2023/04/25 01:17:19;;;;;;;7.13;4.22;;;;;;;6.33;100.00;99954.47;4914746;29;20048;-80
2023/04/25 01:19:48;;;;;;;10.80;5.03;;;;;;;6.36;100.00;99956.19;4878530;29;1043548;-79
2023/04/25 01:22:15;;;;;;;14.05;4.85;;;;;;;6.36;100.00;99954.47;4915695;29;20044;-80
2023/04/25 01:24:42;;;;;;;10.32;4.20;;;;;;;6.38;100.00;99944.91;4915416;29;20417;-80
2023/04/25 01:27:10;;;;;;;10.73;4.40;;;;;;;6.35;100.00;99949.25;4915343;29;20112;-80
2023/04/25 01:29:37;;;;;;;10.38;5.57;;;;;;;6.34;100.00;99952.75;4915090;29;20032;-80
2023/04/25 01:32:04;;;;;;;10.45;5.30;;;;;;;6.35;100.00;99949.25;4915584;29;20044;-81
2023/04/25 01:34:31;;;;;;;15.18;4.53;;;;;;;6.36;100.00;99944.06;4915083;29;20123;-80
2023/04/25 01:37:02;;;;;;;14.50;4.75;;;;;;;6.37;100.00;99944.94;4899183;29;20051;-81
2023/04/25 01:39:29;;;;;;;13.68;5.55;;;;;;;6.39;100.00;99946.66;4915741;29;20432;-80
2023/04/25 01:41:56;;;;;;;7.70;3.85;;;;;;;6.36;100.00;99945.78;4915238;29;20060;-80
2023/04/25 01:44:22;;;;;;;10.85;5.22;;;;;;;6.37;100.00;99947.53;4915217;29;20044;-80
2023/04/25 01:46:48;;;;;;;9.18;4.97;;;;;;;6.32;100.00;99941.47;4915377;29;20040;-81
2023/04/25 01:49:15;;;;;;;9.35;5.18;;;;;;;6.36;100.00;99949.28;4916593;29;20040;-82
2023/04/25 01:51:42;;;;;;;12.27;5.57;;;;;;;6.33;100.00;99956.22;4915090;29;20512;-80
2023/04/25 01:54:10;;;;;;;9.82;5.50;;;;;;;6.34;100.00;99952.75;4914870;29;20071;-81
2023/04/25 01:56:39;;;;;;;12.30;4.10;;;;;;;6.35;100.00;99957.94;4899603;29;20456;-79
2023/04/25 01:59:06;;;;;;;12.45;5.60;;;;;;;6.36;100.00;99961.38;4915326;29;20131;-81
2023/04/25 02:01:33;;;;;;;11.90;5.18;;;;;;;6.34;100.00;99963.16;4917280;29;20096;-81
2023/04/25 02:04:00;;;;;;;23.30;6.07;;;;;;;6.35;100.00;99965.72;4918881;29;20036;-81
2023/04/25 02:06:26;;;;;;;7.47;4.47;;;;;;;6.31;100.00;99971.81;4903695;29;20543;-81
2023/04/25 02:08:53;;;;;;;7.55;4.50;;;;;;;6.31;100.00;99976.13;4918129;29;20044;-81
2023/04/25 02:11:19;;;;;;;9.18;4.55;;;;;;;6.29;100.00;99982.19;4925047;29;20064;-81
2023/04/25 02:13:46;;;;;;;7.22;4.38;;;;;;;6.28;100.00;99975.28;4918975;29;20048;-80
2023/04/25 02:16:12;;;;;;;12.18;5.13;;;;;;;6.29;100.00;99984.78;4918136;29;20044;-81
2023/04/25 02:18:39;;;;;;;13.00;5.15;;;;;;;6.17;100.00;99984.81;4919584;29;20043;-80
2023/04/25 02:21:06;;;;;;;8.95;4.18;;;;;;;6.07;100.00;99994.34;4937716;29;20056;-81
2023/04/25 02:23:34;;;;;;;6.20;3.90;;;;;;;5.95;100.00;99995.19;4918990;29;20436;-80
2023/04/25 02:26:00;;;;;;;11.77;4.63;;;;;;;5.91;100.00;99998.66;4918619;29;20176;-80
2023/04/25 02:28:27;;;;;;;8.85;4.40;;;;;;;5.90;100.00;100007.31;4918107;29;20440;-80
2023/04/25 02:30:54;;;;;;;13.45;3.75;;;;;;;5.88;100.00;100000.41;4918055;29;20040;-81
2023/04/25 02:33:20;;;;;;;10.07;3.58;;;;;;;5.91;100.00;100016.00;4918485;29;20139;-80
2023/04/25 02:35:48;;;;;;;12.68;3.90;;;;;;;5.92;100.00;100008.19;4902995;29;20138;-81
2023/04/25 02:38:14;;;;;;;11.50;3.65;;;;;;;5.93;100.00;100020.34;4917949;29;20044;-80
2023/04/25 02:40:41;;;;;;;10.98;2.60;;;;;;;5.95;100.00;100025.53;4918457;29;20142;-80
2023/04/25 02:43:08;;;;;;;16.52;4.82;;;;;;;5.96;100.00;100024.66;4918293;29;20154;-80
2023/04/25 02:45:34;;;;;;;10.00;3.03;;;;;;;5.98;100.00;100025.53;4902819;29;20040;-82
2023/04/25 02:48:01;;;;;;;10.25;2.65;;;;;;;5.99;100.00;100018.63;4923008;29;20036;-80
2023/04/25 02:50:28;;;;;;;12.52;3.25;;;;;;;5.99;100.00;100019.50;4908404;29;20542;-82
2023/04/25 02:52:54;;;;;;;9.60;3.10;;;;;;;6.00;100.00;100018.63;4938531;29;20128;-81
2023/04/25 02:55:22;;;;;;;11.57;4.95;;;;;;;6.03;100.00;100026.41;4925422;29;20055;-81
2023/04/25 02:57:48;;;;;;;8.48;3.83;;;;;;;6.05;100.00;100018.59;4924777;29;20040;-80
2023/04/25 03:00:15;;;;;;;10.43;2.88;;;;;;;6.03;100.00;100015.16;4922860;29;20074;-80
2023/04/25 03:02:42;;;;;;;17.92;5.03;;;;;;;5.98;100.00;100020.34;4924530;29;20056;-81
2023/04/25 03:05:08;;;;;;;14.45;3.67;;;;;;;6.00;100.00;100022.94;4923413;29;20094;-79
2023/04/25 03:07:35;;;;;;;12.80;4.22;;;;;;;5.96;100.00;100016.88;4923447;29;20044;-80
2023/04/25 03:10:02;;;;;;;11.55;2.95;;;;;;;5.94;100.00;100028.97;4907959;29;20360;-82
2023/04/25 03:12:28;;;;;;;12.57;3.25;;;;;;;5.93;100.00;100028.13;4917919;29;20127;-81
2023/04/25 03:14:54;;;;;;;12.55;2.75;;;;;;;5.93;100.00;100029.84;4902163;29;20040;-82
2023/04/25 03:17:21;;;;;;;14.70;4.82;;;;;;;5.89;100.00;100030.72;4918263;29;20048;-81
2023/04/25 03:19:48;;;;;;;14.13;3.47;;;;;;;5.91;100.00;100026.41;4901633;29;20071;-80
2023/04/25 03:22:14;;;;;;;12.07;2.63;;;;;;;5.89;100.00;100025.50;4918834;29;20046;-80
2023/04/25 03:24:41;;;;;;;13.88;4.25;;;;;;;5.86;100.00;100030.72;4917805;29;20055;-81
2023/04/25 03:27:07;;;;;;;11.55;3.80;;;;;;;5.84;100.00;100029.84;4917941;29;20068;-81
2023/04/25 03:29:34;;;;;;;17.23;3.35;;;;;;;5.85;100.00;100039.38;4917110;29;20046;-81
2023/04/25 03:32:00;;;;;;;13.57;3.70;;;;;;;5.86;100.00;100044.56;4917722;29;20066;-81
2023/04/25 03:34:27;;;;;;;8.88;3.35;;;;;;;5.86;100.00;100048.91;4917506;29;20071;-83
2023/04/25 03:36:55;;;;;;;9.70;2.90;;;;;;;5.88;100.00;100055.84;4902019;29;20494;-79
2023/04/25 03:39:22;;;;;;;8.95;2.83;;;;;;;5.88;100.00;100062.75;4902199;29;20043;-81
2023/04/25 03:41:48;;;;;;;14.93;3.70;;;;;;;5.87;100.00;100056.69;4917598;29;20050;-82
2023/04/25 03:44:15;;;;;;;10.90;3.67;;;;;;;5.83;100.00;100064.47;4917807;29;20048;-81
2023/04/25 03:46:41;;;;;;;11.30;3.97;;;;;;;5.80;100.00;100071.41;4919827;29;20407;-82
2023/04/25 03:49:08;;;;;;;12.50;5.20;;;;;;;5.77;100.00;100067.94;4919141;29;20064;-81
2023/04/25 03:51:35;;;;;;;12.90;4.28;;;;;;;5.72;100.00;100078.34;4901633;29;20047;-81
2023/04/25 03:54:01;;;;;;;7.97;3.13;;;;;;;5.71;100.00;100075.72;4916859;29;20044;-81
2023/04/25 03:56:28;;;;;;;9.18;3.25;;;;;;;5.66;100.00;100073.13;4917184;29;20122;-80
2023/04/25 03:58:54;;;;;;;12.40;3.28;;;;;;;5.63;100.00;100079.19;4917185;29;20063;-81
2023/04/25 04:01:21;;;;;;;5.55;3.00;;;;;;;5.60;100.00;100079.16;4917150;29;20048;-81
2023/04/25 04:03:47;;;;;;;12.05;4.22;;;;;;;5.59;100.00;100080.03;4917826;29;20048;-81
2023/04/25 04:06:14;;;;;;;15.05;4.50;;;;;;;5.56;100.00;100072.22;4917299;29;20043;-81
2023/04/25 04:08:41;;;;;;;16.50;3.70;;;;;;;5.55;100.00;100078.28;4917352;29;20040;-81
2023/04/25 04:11:08;;;;;;;20.25;3.90;;;;;;;5.58;100.00;100083.50;4918961;29;20044;-82
2023/04/25 04:13:34;;;;;;;13.15;3.78;;;;;;;5.58;100.00;100073.09;4901054;29;20435;-82
2023/04/25 04:16:01;;;;;;;17.48;4.50;;;;;;;5.60;100.00;100075.69;4900715;29;20227;-82
2023/04/25 04:18:27;;;;;;;18.35;4.68;;;;;;;5.60;100.00;100080.88;4917992;29;20075;-82
2023/04/25 04:20:54;;;;;;;8.40;4.00;;;;;;;5.63;100.00;100083.47;4918285;29;20078;-82
2023/04/25 04:23:22;;;;;;;11.10;3.83;;;;;;;5.66;100.00;100086.09;4916788;29;20431;-82
2023/04/25 04:25:49;;;;;;;10.63;4.50;;;;;;;5.69;100.00;100093.03;4916710;29;20051;-81
2023/04/25 04:28:15;;;;;;;13.90;4.45;;;;;;;5.71;100.00;100091.28;4916702;29;20138;-82
2023/04/25 04:30:46;;;;;;;23.33;4.85;;;;;;;5.74;100.00;100093.91;4917437;29;20051;-81
2023/04/25 04:33:14;;;;;;;16.30;4.43;;;;;;;5.75;100.00;100096.50;4917202;29;20067;-81
2023/04/25 04:35:42;;;;;;;14.40;4.13;;;;;;;5.73;100.00;100099.97;4917108;29;20071;-82
2023/04/25 04:38:10;;;;;;;19.48;4.85;;;;;;;5.71;100.00;100099.97;4917147;29;20055;-81
2023/04/25 04:40:39;;;;;;;20.55;3.33;;;;;;;5.73;100.00;100110.34;4917415;29;20054;-80
2023/04/25 04:43:05;;;;;;;20.38;4.47;;;;;;;5.74;100.00;100112.09;4918808;29;20044;-83
2023/04/25 04:45:33;;;;;;;20.17;5.93;;;;;;;5.77;100.00;100109.50;4917630;29;20387;-83
2023/04/25 04:48:00;;;;;;;10.30;3.38;;;;;;;5.79;100.00;100119.03;4918279;29;20047;-83
2023/04/25 04:50:27;;;;;;;19.35;3.92;;;;;;;5.82;100.00;100114.72;4917090;29;20091;-83
2023/04/25 04:52:55;;;;;;;24.65;4.78;;;;;;;5.82;100.00;100118.16;4916994;29;20051;-83
2023/04/25 04:55:21;;;;;;;15.68;4.53;;;;;;;5.79;99.66;100123.34;4916520;29;20040;-83
2023/04/25 04:57:50;;;;;;;14.25;3.85;;;;;;;5.77;100.00;100122.47;4916831;29;20051;-82
2023/04/25 05:00:18;;;;;;;15.80;3.95;;;;;;;5.75;100.00;100130.28;4916508;29;20047;-82
2023/04/25 05:02:44;;;;;;;15.98;4.18;;;;;;;5.74;100.00;100131.13;4931802;29;20076;-83
2023/04/25 05:05:11;;;;;;;14.50;4.10;;;;;;;5.72;100.00;100139.78;4917099;29;20055;-83
2023/04/25 05:07:37;;;;;;;23.00;5.75;;;;;;;5.69;100.00;100138.03;4900492;29;20044;-83
2023/04/25 05:10:04;;;;;;;12.48;3.65;;;;;;;5.67;100.00;100137.19;4916075;29;20041;-82
2023/04/25 05:12:31;;;;;;;23.23;5.72;;;;;;;5.68;100.00;100146.69;4917170;29;20059;-82
2023/04/25 05:14:58;;;;;;;14.32;3.72;;;;;;;5.66;100.00;100147.53;4916890;29;20071;-82
2023/04/25 05:17:24;;;;;;;22.38;4.35;;;;;;;5.61;100.00;100145.81;4916335;29;20115;-83
2023/04/25 05:19:53;;;;;;;14.10;3.75;;;;;;;5.55;100.00;100148.38;4917357;29;20147;-83
2023/04/25 05:22:20;;;;;;;13.68;4.25;;;;;;;5.52;100.00;100153.56;4915974;29;20128;-82
2023/04/25 05:24:48;;;;;;;13.85;3.63;;;;;;;5.52;100.00;100156.16;4933163;29;20072;-82
2023/04/25 05:27:18;;;;;;;15.43;3.35;;;;;;;5.53;100.00;100155.31;4919251;29;20082;-82
2023/04/25 05:29:45;;;;;;;20.27;5.63;;;;;;;5.61;100.00;100157.94;4918752;29;20048;-83
2023/04/25 05:32:12;;;;;;;14.10;5.25;;;;;;;5.76;100.00;100164.88;4917564;29;20092;-82
2023/04/25 05:34:38;;;;;;;18.75;4.65;;;;;;;5.87;99.00;100170.13;4932607;29;20051;-82
2023/04/25 05:37:05;;;;;;;17.77;4.10;;;;;;;5.99;97.14;100170.19;4903628;29;20051;-82
2023/04/25 05:39:31;;;;;;;16.48;3.83;;;;;;;6.15;95.50;100173.66;4921107;29;20036;-83
2023/04/25 05:41:58;;;;;;;30.60;6.15;;;;;;;6.23;94.29;100174.56;4920794;29;20096;-82
2023/04/25 05:44:24;;;;;;;18.92;5.13;;;;;;;6.32;93.69;100181.47;4920956;29;20043;-81
2023/04/25 05:46:51;;;;;;;12.75;2.67;;;;;;;6.41;92.85;100180.63;4920917;29;20071;-83
2023/04/25 05:49:17;;;;;;;16.02;3.65;;;;;;;6.50;92.52;100192.78;4921073;29;20044;-81
2023/04/25 05:51:44;;;;;;;14.25;5.43;;;;;;;6.56;91.25;100191.03;4921380;29;20036;-82
2023/04/25 05:54:10;;;;;;;8.10;3.53;;;;;;;6.57;90.02;100187.56;4920726;29;20078;-81
2023/04/25 05:56:37;;;;;;;16.50;3.92;;;;;;;6.58;89.77;100197.13;4920825;29;20436;-81
2023/04/25 05:59:06;;;;;;;11.20;3.40;;;;;;;6.64;88.71;100200.59;4920989;29;20048;-82
2023/04/25 06:01:33;;;;;;;15.30;3.28;;;;;;;6.69;88.36;100204.91;4920299;29;20147;-81
2023/04/25 06:04:02;;;;;;;16.88;3.30;;;;;;;6.70;86.79;100205.75;4919613;29;20051;-81
2023/04/25 06:06:30;;;;;;;16.65;2.60;;;;;;;6.71;87.68;100212.69;4919550;29;20052;-83
2023/04/25 06:08:56;;;;;;;16.58;3.80;;;;;;;6.81;86.48;100217.03;4934603;29;20484;-81
2023/04/25 06:11:23;;;;;;;12.60;3.75;;;;;;;6.88;86.78;100220.50;4919527;29;20065;-82
2023/04/25 06:13:49;;;;;;;15.00;3.70;;;;;;;6.88;86.54;100218.78;4935987;29;20143;-82
2023/04/25 06:16:16;;;;;;;13.52;3.80;;;;;;;6.97;86.44;100219.63;4921781;29;20040;-82
2023/04/25 06:18:42;;;;;;;13.73;2.80;;;;;;;7.03;86.32;100222.25;4920281;29;20036;-82
2023/04/25 06:21:09;;;;;;;18.73;3.60;;;;;;;7.00;86.21;100222.22;4920545;29;20120;-82
2023/04/25 06:23:36;;;;;;;16.88;3.35;;;;;;;6.93;86.27;100223.97;4920231;29;20044;-83
2023/04/25 06:26:03;;;;;;;23.30;3.72;;;;;;;6.93;86.15;100231.78;4921638;29;20103;-82
2023/04/25 06:28:29;;;;;;;10.57;4.80;;;;;;;6.95;85.62;100223.09;4920383;29;20103;-82
2023/04/25 06:30:56;;;;;;;12.40;3.00;;;;;;;6.92;84.28;100230.91;4920008;29;20456;-82
2023/04/25 06:33:24;;;;;;;8.60;2.58;;;;;;;6.89;84.16;100235.25;4904387;29;20042;-81
2023/04/25 06:35:50;;;;;;;10.63;3.33;;;;;;;6.89;84.32;100230.03;4906295;29;20044;-82
2023/04/25 06:38:17;;;;;;;14.00;4.78;;;;;;;6.97;84.68;100233.50;4921677;29;20036;-82
2023/04/25 06:40:43;;;;;;;12.27;3.45;;;;;;;7.07;83.86;100236.97;4919892;29;20409;-81
2023/04/25 06:43:10;;;;;;;17.85;4.10;;;;;;;7.04;82.87;100227.44;4904471;29;20044;-84
2023/04/25 06:45:37;;;;;;;10.93;3.03;;;;;;;7.09;83.16;100230.91;4903983;29;20040;-83
2023/04/25 06:48:04;;;;;;;18.48;3.75;;;;;;;7.16;82.49;100223.94;4903325;29;20051;-83
2023/04/25 06:50:30;;;;;;;14.68;3.80;;;;;;;7.17;81.68;100235.22;4920547;29;20060;-82
2023/04/25 06:52:57;;;;;;;7.80;2.80;;;;;;;7.14;81.61;100230.88;4920211;29;20119;-82
2023/04/25 06:55:24;;;;;;;16.05;3.22;;;;;;;7.12;81.35;100236.09;4920150;29;20048;-81
2023/04/25 06:57:51;;;;;;;17.63;3.63;;;;;;;7.25;82.10;100234.34;4904510;29;20055;-81
2023/04/25 07:00:18;;;;;;;19.15;3.80;;;;;;;7.44;80.35;100237.78;4905334;29;20537;-82
2023/04/25 07:02:45;;;;;;;15.77;3.08;;;;;;;7.65;79.45;100245.50;4918732;29;20040;-83
2023/04/25 07:05:11;;;;;;;15.40;3.97;;;;;;;7.75;78.34;100247.22;4918128;29;20044;-82
2023/04/25 07:07:38;;;;;;;10.48;2.80;;;;;;;7.97;77.47;100241.91;4919698;29;20175;-82
2023/04/25 07:10:05;;;;;;;9.40;2.72;;;;;;;8.01;77.23;100241.88;4902180;29;20052;-82
2023/04/25 07:12:32;;;;;;;10.05;2.85;;;;;;;7.92;76.84;100245.38;4918689;29;20044;-83
2023/04/25 07:14:58;;;;;;;7.97;2.88;;;;;;;7.78;75.57;100255.88;4919949;29;20477;-81
2023/04/25 07:17:25;;;;;;;17.95;3.60;;;;;;;7.66;75.95;100248.09;4918791;29;20036;-82
2023/04/25 07:19:51;;;;;;;7.32;4.43;;;;;;;7.67;74.79;100256.81;4902997;29;20115;-84
2023/04/25 07:22:18;;;;;;;13.43;3.42;;;;;;;7.69;75.19;100258.53;4920023;29;20044;-82
2023/04/25 07:24:48;;;;;;;9.52;2.92;;;;;;;7.66;75.90;100250.72;4902820;29;20072;-83
2023/04/25 07:27:15;;;;;;;12.35;3.28;;;;;;;7.66;76.19;100260.28;4918006;29;20490;-82
2023/04/25 07:29:44;;;;;;;12.35;2.85;;;;;;;7.73;74.85;100264.56;4918278;29;20164;-82
2023/04/25 07:32:12;;;;;;;18.17;3.42;;;;;;;7.86;75.11;100266.28;4918064;29;20388;-82
2023/04/25 07:34:38;;;;;;;16.38;3.83;;;;;;;8.05;74.72;100264.44;4933530;29;20050;-83
2023/04/25 07:37:05;;;;;;;10.95;3.08;;;;;;;8.14;73.38;100266.13;4901571;29;20119;-82
2023/04/25 07:39:32;;;;;;;7.53;2.60;;;;;;;8.17;72.50;100275.69;4917266;29;20078;-82
2023/04/25 07:42:00;;;;;;;10.07;2.45;;;;;;;8.21;72.76;100282.63;4917342;29;20451;-82
2023/04/25 07:44:26;;;;;;;12.98;3.53;;;;;;;8.22;72.63;100266.09;4933450;29;20135;-82
2023/04/25 07:46:53;;;;;;;8.60;2.80;;;;;;;8.28;72.05;100276.50;4916621;29;20467;-82
2023/04/25 07:49:19;;;;;;;13.77;2.13;;;;;;;8.36;71.35;100274.72;4917002;29;20124;-82
2023/04/25 07:51:46;;;;;;;8.27;2.50;;;;;;;8.43;69.02;100280.75;4917005;29;20036;-83
2023/04/25 07:54:15;;;;;;;5.85;1.90;;;;;;;8.39;69.39;100285.13;4901513;29;20147;-82
2023/04/25 07:56:42;;;;;;;10.45;2.28;;;;;;;8.43;69.28;100288.56;4933098;29;20051;-82
2023/04/25 07:59:08;;;;;;;6.65;2.17;;;;;;;8.50;69.32;100294.66;4916603;29;20046;-82
2023/04/25 08:01:35;;;;;;;10.75;1.98;;;;;;;8.64;69.56;100294.56;4918160;29;20047;-82
2023/04/25 08:04:02;;;;;;;6.93;2.60;;;;;;;8.76;67.76;100284.03;4917934;29;20044;-81
2023/04/25 08:06:28;;;;;;;6.20;2.72;;;;;;;8.80;67.52;100291.00;4918408;29;20072;-82
2023/04/25 08:08:55;;;;;;;3.50;1.52;;;;;;;8.91;66.61;100290.91;4918361;29;20122;-81
2023/04/25 08:11:21;;;;;;;6.53;1.90;;;;;;;9.04;65.90;100304.72;4904701;29;20040;-82
2023/04/25 08:13:48;;;;;;;7.15;3.05;;;;;;;9.05;64.37;100296.88;4905226;29;20396;-82
2023/04/25 08:16:15;;;;;;;10.73;2.38;;;;;;;8.97;64.17;100297.81;4916983;29;20115;-83
2023/04/25 08:18:42;;;;;;;8.75;2.63;;;;;;;9.87;63.69;100297.81;4901757;29;20044;-82
2023/04/25 08:21:11;;;;;;;11.82;2.60;;;;;;;10.79;61.42;100303.56;4900403;29;20059;-81
2023/04/25 08:23:37;;;;;;;8.85;2.70;;;;;;;11.78;58.07;100299.22;4901783;29;20052;-82
2023/04/25 08:26:04;;;;;;;6.18;2.20;;;;;;;11.96;52.63;100295.38;4901505;29;20048;-81
2023/04/25 08:28:31;;;;;;;11.75;2.28;;;;;;;11.33;51.60;100307.91;4917010;29;20371;-82
2023/04/25 08:30:58;;;;;;;6.75;1.98;;;;;;;11.82;50.29;100308.75;4916945;29;20040;-81
2023/04/25 08:33:24;;;;;;;5.70;2.00;;;;;;;12.15;48.71;100310.75;4917181;29;20043;-81
2023/04/25 08:35:51;;;;;;;5.82;2.20;;;;;;;12.45;48.59;100304.00;4918344;29;20040;-80
2023/04/25 08:38:19;;;;;;;6.07;1.92;;;;;;;11.62;47.01;100311.75;4917645;29;20150;-81
2023/04/25 08:40:51;;;;;;;7.43;1.98;;;;;;;11.83;47.29;100310.47;4917981;29;20052;-81
2023/04/25 08:43:20;;;;;;;5.88;1.85;;;;;;;12.34;45.87;100312.06;4918180;29;20123;-82
2023/04/25 08:45:47;;;;;;;6.57;1.60;;;;;;;13.40;42.55;100313.97;4918042;29;20051;-81
2023/04/25 08:48:16;;;;;;;4.10;1.60;;;;;;;14.58;42.28;100304.53;4925711;29;20048;-81
2023/04/25 08:50:51;;;;;;;6.97;2.20;;;;;;;14.48;40.57;100312.69;4909548;29;20044;-82
2023/04/25 08:53:27;;;;;;;6.03;1.52;;;;;;;12.87;41.81;100313.53;4925006;29;20047;-80
2023/04/25 08:55:56;;;;;;;9.95;1.90;;;;;;;12.05;44.35;100329.31;4926048;29;20100;-81
2023/04/25 08:58:23;;;;;;;9.02;1.73;;;;;;;11.54;45.37;100332.88;4926215;29;20087;-79
2023/04/25 09:00:52;;;;;;;7.20;1.35;;;;;;;10.79;47.23;100332.34;4924815;29;20048;-81
2023/04/25 09:03:19;;;;;;;4.90;2.38;;;;;;;10.36;48.37;100343.44;4940436;29;20044;-81
2023/04/25 09:05:46;;;;;;;7.13;1.17;;;;;;;10.19;48.66;100346.22;4923915;29;20079;-81
2023/04/25 09:08:13;;;;;;;3.58;1.33;;;;;;;10.18;48.93;100354.94;4922826;29;20043;-82
2023/04/25 09:10:40;;;;;;;4.65;1.55;;;;;;;10.42;47.98;100348.59;4920884;29;20052;-82
2023/04/25 09:13:14;;;;;;;4.70;1.40;;;;;;;10.55;48.19;100355.38;4921497;29;20106;-82
2023/04/25 09:15:53;;;;;;;18.27;2.17;;;;;;;11.14;46.93;100367.59;4920968;29;20052;-82
2023/04/25 09:18:34;;;;;;;4.78;1.00;;;;;;;11.97;42.72;100353.94;4935821;29;20458;-81
2023/04/25 09:21:11;;;;;;;2.03;1.33;;;;;;;13.01;38.45;100368.34;4936380;29;20060;-81
2023/04/25 09:23:49;;;;;;;2.50;0.80;;;;;;;14.11;36.35;100357.69;4905719;29;20162;-82
2023/04/25 09:26:21;;;;;;;5.82;1.25;;;;;;;15.00;34.11;100362.91;4920710;29;20047;-82
2023/04/25 09:28:48;;;;;;;5.35;0.93;;;;;;;15.78;33.35;100368.28;4905660;29;20394;-81
2023/04/25 09:31:24;;;;;;;2.92;0.82;;;;;;;16.87;33.24;100355.44;4920779;29;20483;-82
2023/04/25 09:33:50;;;;;;;2.28;1.05;;;;;;;17.33;31.70;100364.16;4905542;29;20044;-83
2023/04/25 09:36:17;;;;;;;5.20;0.90;;;;;;;17.59;30.78;100362.19;4937348;29;20186;-82
2023/04/25 09:38:49;;;;;;;3.47;0.80;;;;;;;17.81;29.45;100369.22;4905541;29;20051;-81
2023/04/25 09:41:24;;;;;;;4.80;0.75;;;;;;;18.37;29.92;100358.81;4919544;29;20067;-82
2023/04/25 09:43:51;;;;;;;4.85;1.80;;;;;;;18.80;29.38;100368.25;4919463;29;20040;-82
2023/04/25 09:46:20;;;;;;;4.65;0.95;;;;;;;18.84;28.78;100367.19;4920028;29;20135;-82
2023/04/25 09:48:53;;;;;;;4.75;0.98;;;;;;;19.08;28.10;100364.28;4919879;29;20043;-82
2023/04/25 09:51:26;;;;;;;2.28;0.70;;;;;;;19.08;28.33;100372.25;4919594;29;20271;-83
2023/04/25 09:53:53;;;;;;;4.80;1.25;;;;;;;19.18;27.30;100378.81;4921064;29;20048;-81
2023/04/25 09:56:21;;;;;;;2.40;0.85;;;;;;;18.08;27.82;100380.41;4921013;29;20538;-82
2023/04/25 09:58:48;;;;;;;4.43;1.00;;;;;;;17.46;29.75;100368.94;4920994;29;20040;-82
2023/04/25 10:01:15;;;;;;;5.05;1.52;;;;;;;17.65;29.04;100372.53;4920501;29;20072;-81
2023/04/25 10:03:51;;;;;;;2.45;1.30;;;;;;;18.73;28.16;100363.31;4919498;29;20048;-82
2023/04/25 10:06:21;;;;;;;2.53;0.70;;;;;;;17.99;29.47;100373.72;4919143;29;20127;-83
2023/04/25 10:08:51;;;;;;;6.97;1.10;;;;;;;16.20;31.76;100378.22;4919372;29;20043;-82
2023/04/25 10:11:18;;;;;;;5.35;1.23;;;;;;;14.25;33.89;100384.50;4919537;29;20082;-83
2023/04/25 10:13:47;;;;;;;8.40;1.33;;;;;;;13.46;35.53;100397.09;4919754;29;20040;-82
2023/04/25 10:16:14;;;;;;;5.00;1.20;;;;;;;12.84;36.82;100405.53;4919960;29;20036;-82
2023/04/25 10:18:40;;;;;;;2.05;0.90;;;;;;;12.38;38.08;100405.63;4919655;29;20044;-82
2023/04/25 10:21:08;;;;;;;4.65;1.35;;;;;;;11.82;39.26;100416.25;4919584;29;20052;-81
2023/04/25 10:23:35;;;;;;;1.27;0.73;;;;;;;11.50;40.46;100417.69;4920283;29;20043;-81
2023/04/25 10:26:02;;;;;;;3.17;1.08;;;;;;;11.13;41.77;100425.28;4919724;29;20396;-82
2023/04/25 10:28:29;;;;;;;2.30;0.70;;;;;;;10.97;41.77;100429.88;4935323;29;20119;-81
2023/04/25 10:31:08;;;;;;;1.92;1.10;;;;;;;10.65;42.62;100428.53;4918994;29;20226;-82
2023/04/25 10:33:41;;;;;;;3.55;1.05;;;;;;;10.47;44.22;100425.28;4918335;29;20369;-82
2023/04/25 10:36:23;;;;;;;7.28;1.35;;;;;;;10.27;44.78;100435.94;4919596;29;20048;-82
2023/04/25 10:38:52;;;;;;;1.70;0.82;;;;;;;10.22;45.38;100438.63;4919159;29;20051;-81
2023/04/25 10:41:22;;;;;;;8.13;1.23;;;;;;;10.64;44.83;100430.31;4919298;29;20048;-81
2023/04/25 10:43:51;;;;;;;6.85;1.13;;;;;;;11.33;44.11;100432.81;4919655;29;20115;-82
2023/04/25 10:46:25;;;;;;;7.05;1.10;;;;;;;11.87;42.60;100435.41;4919510;29;20040;-81
2023/04/25 10:49:03;;;;;;;3.53;1.35;;;;;;;12.07;41.22;100437.72;4919546;29;20122;-81
2023/04/25 10:51:34;;;;;;;5.68;1.27;;;;;;;12.30;41.11;100433.78;4903375;29;20055;-81
2023/04/25 10:54:06;;;;;;;2.53;1.08;;;;;;;12.18;40.84;100436.66;4934829;29;20051;-82
2023/04/25 10:56:39;;;;;;;7.13;1.45;;;;;;;12.14;41.08;100430.59;4920103;29;20051;-82
2023/04/25 10:59:18;;;;;;;13.25;1.73;;;;;;;11.83;41.78;100435.50;4921651;29;20044;-83
2023/04/25 11:01:54;;;;;;;5.00;0.73;;;;;;;11.58;42.21;100433.31;4921400;29;20079;-81
2023/04/25 11:04:33;;;;;;;5.35;1.67;;;;;;;11.20;41.75;100437.41;4920930;29;20055;-82
2023/04/25 11:07:30;;;;;;;2.38;0.90;;;;;;;10.94;42.59;100438.66;4921107;29;20044;-81
2023/04/25 11:09:57;;;;;;;2.63;1.25;;;;;;;12.27;40.93;100438.22;4920588;29;20052;-81
2023/04/25 11:12:25;;;;;;;3.60;1.23;;;;;;;15.01;36.98;100427.06;4919896;29;20138;-81
2023/04/25 11:15:00;;;;;;;4.78;1.20;;;;;;;17.24;33.50;100427.19;4919329;29;20043;-83
2023/04/25 11:17:30;;;;;;;1.88;0.93;;;;;;;18.91;31.01;100419.97;4920807;29;20048;-81
2023/04/25 11:19:57;;;;;;;6.18;1.10;;;;;;;19.69;29.07;100427.69;4905743;29;20043;-81
2023/04/25 11:22:24;;;;;;;4.63;1.70;;;;;;;19.08;29.75;100427.13;4918264;29;20047;-81
2023/04/25 11:24:51;;;;;;;4.40;1.48;;;;;;;17.57;31.22;100424.06;4918119;29;20086;-81
2023/04/25 11:27:21;;;;;;;1.63;1.30;;;;;;;16.19;33.64;100434.59;4918561;29;20096;-82